Time;durP1;ratioP1;P1;durP2;ratioP2;P2;SDS_P1;SDS_P2;PMS_P1;PMS_P2;Temp;Humidity;BMP_temperature;BMP_pressure;BME280_temperature;BME280_humidity;BME280_pressure;Samples;Min_cycle;Max_cycle;Signal;HPM_P1;HPM_P2
2022/01/10 00:02:49;;;;;;;45.33;20.90;;;;;;;-2.21;100.00;100225.28;10539221;28;20340;-65
2022/01/10 00:07:54;;;;;;;51.13;21.23;;;;;;;-2.13;100.00;100227.28;10539432;28;20220;-63
2022/01/10 00:12:58;;;;;;;46.40;20.30;;;;;;;-2.09;100.00;100234.22;10539057;28;20207;-65
2022/01/10 00:18:01;;;;;;;45.27;20.87;;;;;;;-2.17;100.00;100244.91;10539193;28;20556;-64
2022/01/10 00:23:06;;;;;;;43.13;18.80;;;;;;;-2.20;100.00;100244.78;10538968;28;20218;-64
2022/01/10 00:28:09;;;;;;;41.67;19.20;;;;;;;-2.11;100.00;100257.84;10524163;28;20216;-64
2022/01/10 00:33:13;;;;;;;49.33;19.50;;;;;;;-2.02;100.00;100246.34;10505740;28;20246;-64
2022/01/10 00:38:17;;;;;;;44.77;18.23;;;;;;;-2.02;100.00;100265.81;10504893;28;20223;-64
2022/01/10 00:43:31;;;;;;;46.47;19.43;;;;;;;-1.81;100.00;100266.63;10504717;28;20220;-62
2022/01/10 00:48:34;;;;;;;48.60;19.53;;;;;;;-1.90;100.00;100269.72;10505030;28;20639;-64
2022/01/10 00:53:39;;;;;;;45.60;21.10;;;;;;;-1.97;100.00;100271.94;10504625;28;20220;-63
2022/01/10 00:58:42;;;;;;;42.10;18.50;;;;;;;-2.06;100.00;100279.22;10504596;28;20216;-66
2022/01/10 01:03:46;;;;;;;40.53;17.13;;;;;;;-2.00;100.00;100297.25;10503972;28;20572;-64
2022/01/10 01:08:57;;;;;;;36.00;16.87;;;;;;;-1.91;100.00;100300.13;10503942;28;20614;-65
2022/01/10 01:14:07;;;;;;;42.43;17.57;;;;;;;-1.72;100.00;100307.66;10503897;28;20341;-64
2022/01/10 01:24:41;;;;;;;38.00;17.27;;;;;;;-1.62;100.00;100327.53;10503485;28;20673;-64
2022/01/10 01:29:45;;;;;;;39.73;16.23;;;;;;;-1.76;100.00;100332.09;10536470;28;20226;-63
2022/01/10 01:34:48;;;;;;;35.93;16.67;;;;;;;-1.55;100.00;100342.22;10546301;28;20305;-65
2022/01/10 01:39:52;;;;;;;41.60;16.83;;;;;;;-1.61;100.00;100345.41;10547240;28;20246;-65
2022/01/10 01:44:56;;;;;;;40.17;16.93;;;;;;;-1.68;100.00;100350.19;10547800;28;20211;-63
2022/01/10 01:49:59;;;;;;;41.37;17.70;;;;;;;-1.56;100.00;100350.66;10547742;28;20231;-64
2022/01/10 01:55:05;;;;;;;40.83;16.27;;;;;;;-1.46;100.00;100348.53;10547625;28;20284;-62
2022/01/10 02:00:09;;;;;;;38.70;17.40;;;;;;;-1.41;100.00;100347.00;10547440;28;20229;-69
2022/01/10 02:05:13;;;;;;;29.70;14.03;;;;;;;-1.45;100.00;100350.25;10547073;28;20235;-63
2022/01/10 02:10:17;;;;;;;31.40;14.97;;;;;;;-1.50;100.00;100358.53;10546824;28;20223;-62
2022/01/10 02:15:30;;;;;;;30.33;15.00;;;;;;;-1.40;100.00;100363.16;10546583;28;20221;-64
2022/01/10 02:20:35;;;;;;;34.10;15.20;;;;;;;-1.20;100.00;100367.28;10546522;28;20219;-64
2022/01/10 02:25:39;;;;;;;37.30;16.10;;;;;;;-1.04;100.00;100376.34;10546733;28;20219;-63
2022/01/10 02:30:42;;;;;;;29.73;13.80;;;;;;;-1.19;100.00;100382.63;10545914;28;20223;-63
2022/01/10 02:35:55;;;;;;;37.17;14.53;;;;;;;-1.13;100.00;100383.66;10545959;28;20222;-66
2022/01/10 02:40:58;;;;;;;29.97;14.60;;;;;;;-1.11;100.00;100389.66;10545811;28;20250;-63
2022/01/10 02:46:02;;;;;;;33.47;15.87;;;;;;;-1.01;100.00;100392.59;10545713;28;20212;-63
2022/01/10 02:51:06;;;;;;;33.27;15.40;;;;;;;-0.92;100.00;100403.13;10545009;28;20237;-62
2022/01/10 02:56:10;;;;;;;34.53;15.27;;;;;;;-0.95;100.00;100408.13;10545047;28;20211;-64
2022/01/10 03:01:14;;;;;;;33.00;15.53;;;;;;;-0.89;100.00;100427.81;10545066;28;20223;-65
2022/01/10 03:06:19;;;;;;;37.30;15.97;;;;;;;-0.73;100.00;100425.03;10544444;28;20242;-65
2022/01/10 03:11:22;;;;;;;29.20;15.47;;;;;;;-0.87;100.00;100424.53;10544515;28;20223;-65
2022/01/10 03:16:25;;;;;;;34.30;14.50;;;;;;;-0.88;100.00;100453.34;10544400;28;20299;-65
2022/01/10 03:21:30;;;;;;;32.20;13.83;;;;;;;-0.84;100.00;100464.53;10544103;28;20215;-63
2022/01/10 03:26:33;;;;;;;28.93;13.47;;;;;;;-0.87;100.00;100465.28;10544049;28;20207;-63
2022/01/10 03:31:36;;;;;;;31.33;13.73;;;;;;;-0.90;100.00;100475.38;10543619;28;20584;-63
2022/01/10 03:36:42;;;;;;;33.33;14.87;;;;;;;-0.90;100.00;100485.56;10543594;28;20330;-62
2022/01/10 03:41:46;;;;;;;29.00;12.53;;;;;;;-0.83;100.00;100487.53;10543325;28;20218;-65
2022/01/10 03:46:50;;;;;;;31.37;13.40;;;;;;;-0.74;100.00;100498.03;10543226;28;20219;-65
2022/01/10 03:51:54;;;;;;;28.60;12.50;;;;;;;-0.91;100.00;100509.28;10542841;28;20237;-63
2022/01/10 03:56:59;;;;;;;26.67;13.03;;;;;;;-0.80;100.00;100519.88;10543011;28;20305;-65
2022/01/10 04:02:03;;;;;;;28.43;12.87;;;;;;;-0.76;100.00;100520.03;10542327;28;20554;-64
2022/01/10 04:07:08;;;;;;;31.20;13.23;;;;;;;-0.74;100.00;100518.41;10542207;28;20577;-58
2022/01/10 04:12:11;;;;;;;34.43;12.67;;;;;;;-0.70;100.00;100527.03;10542237;28;20691;-63
2022/01/10 04:17:14;;;;;;;27.67;12.87;;;;;;;-0.62;100.00;100533.31;10542182;28;20219;-63
2022/01/10 04:22:19;;;;;;;29.60;13.93;;;;;;;-0.69;100.00;100541.53;10542120;28;20237;-65
2022/01/10 04:27:22;;;;;;;38.20;17.20;;;;;;;-0.60;100.00;100540.19;10542465;28;20225;-64
2022/01/10 04:32:27;;;;;;;29.83;13.10;;;;;;;-0.73;100.00;100540.56;10542236;28;20211;-65
2022/01/10 04:37:32;;;;;;;30.63;14.23;;;;;;;-0.69;100.00;100549.19;10542156;28;20219;-64
2022/01/10 04:42:35;;;;;;;27.60;12.77;;;;;;;-0.74;100.00;100561.72;10542192;28;20298;-63
2022/01/10 04:47:39;;;;;;;29.27;12.67;;;;;;;-0.73;100.00;100560.94;10541561;28;20607;-64
2022/01/10 04:52:45;;;;;;;32.70;13.80;;;;;;;-0.67;100.00;100578.97;10541780;28;20215;-65
2022/01/10 04:57:48;;;;;;;32.50;14.53;;;;;;;-0.59;100.00;100585.25;10541748;28;20212;-64
2022/01/10 05:02:52;;;;;;;32.73;15.40;;;;;;;-0.52;100.00;100592.28;10541508;28;20238;-63
2022/01/10 05:07:57;;;;;;;29.70;13.63;;;;;;;-0.55;100.00;100594.72;10541300;28;20347;-62
2022/01/10 05:13:00;;;;;;;28.73;13.67;;;;;;;-0.51;100.00;100603.34;10541349;28;20298;-63
2022/01/10 05:18:03;;;;;;;33.90;15.70;;;;;;;-0.52;100.00;100607.59;10549537;28;20322;-65
2022/01/10 05:23:08;;;;;;;36.80;16.97;;;;;;;-0.45;100.00;100608.72;10548834;28;20294;-63
2022/01/10 05:28:13;;;;;;;38.57;15.37;;;;;;;-0.47;100.00;100633.25;10548626;28;20223;-64
2022/01/10 05:33:16;;;;;;;37.43;16.87;;;;;;;-0.45;100.00;100650.34;10548342;28;20235;-60
2022/01/10 05:38:20;;;;;;;41.17;17.17;;;;;;;-0.54;100.00;100651.69;10548165;28;20553;-66
2022/01/10 05:43:24;;;;;;;41.47;17.80;;;;;;;-0.51;100.00;100661.97;10548273;28;20216;-63
2022/01/10 05:48:30;;;;;;;44.63;18.77;;;;;;;-0.48;100.00;100664.63;10547511;28;20242;-65
2022/01/10 05:53:34;;;;;;;44.50;17.90;;;;;;;-0.51;100.00;100670.50;10547667;28;20211;-64
2022/01/10 05:58:38;;;;;;;45.07;18.87;;;;;;;-0.45;100.00;100680.06;10547339;28;20222;-62
2022/01/10 06:03:41;;;;;;;51.73;19.30;;;;;;;-0.60;100.00;100682.88;10547147;28;20224;-61
2022/01/10 06:08:45;;;;;;;68.17;24.33;;;;;;;-0.62;100.00;100686.19;10546866;28;20219;-63
2022/01/10 06:13:49;;;;;;;49.97;20.17;;;;;;;-0.55;100.00;100704.31;10546734;28;20712;-58
2022/01/10 06:18:52;;;;;;;43.60;18.67;;;;;;;-0.57;100.00;100711.03;10546268;28;20215;-61
2022/01/10 06:24:01;;;;;;;45.50;17.93;;;;;;;-0.56;100.00;100734.84;10546242;28;20216;-63
2022/01/10 06:29:04;;;;;;;47.00;18.90;;;;;;;-0.58;100.00;100739.00;10546231;28;20227;-61
2022/01/10 06:34:08;;;;;;;45.20;18.70;;;;;;;-0.56;100.00;100755.22;10546412;28;20273;-61
2022/01/10 06:39:12;;;;;;;49.17;20.67;;;;;;;-0.63;100.00;100763.44;10545681;28;20687;-65
2022/01/10 06:44:16;;;;;;;43.97;20.53;;;;;;;-0.54;100.00;100774.00;10545643;28;20296;-63
2022/01/10 06:49:19;;;;;;;49.07;20.20;;;;;;;-0.42;100.00;100789.78;10545368;28;20310;-62
2022/01/10 06:54:24;;;;;;;46.07;21.03;;;;;;;-0.52;100.00;100796.19;10544744;28;20230;-65
2022/01/10 06:59:27;;;;;;;54.97;20.87;;;;;;;-0.42;100.00;100802.53;10544718;28;20222;-67
2022/01/10 07:04:30;;;;;;;48.87;21.63;;;;;;;-0.26;100.00;100821.06;10544291;28;20275;-62
2022/01/10 07:09:35;;;;;;;55.97;22.33;;;;;;;-0.42;100.00;100813.63;10544344;28;20308;-64
2022/01/10 07:14:38;;;;;;;52.37;20.40;;;;;;;-0.45;100.00;100828.75;10544378;28;20299;-62
2022/01/10 07:19:42;;;;;;;55.10;22.73;;;;;;;-0.45;100.00;100838.13;10544187;28;20304;-63
2022/01/10 07:24:48;;;;;;;53.77;22.53;;;;;;;-0.41;100.00;100848.47;10481913;28;20224;-65
2022/01/10 07:29:52;;;;;;;57.20;23.07;;;;;;;-0.40;100.00;100857.00;10501490;28;20315;-64
2022/01/10 07:34:55;;;;;;;51.83;22.10;;;;;;;-0.37;100.00;100863.13;10500751;28;20239;-63
2022/01/10 07:40:00;;;;;;;51.93;22.73;;;;;;;-0.29;100.00;100877.03;10500535;28;20223;-61
2022/01/10 07:45:04;;;;;;;52.03;21.67;;;;;;;-0.34;100.00;100888.72;10500667;28;20346;-62
2022/01/10 07:50:08;;;;;;;53.93;22.17;;;;;;;-0.23;100.00;100892.59;10498695;28;20220;-63
2022/01/10 07:55:13;;;;;;;49.33;21.53;;;;;;;-0.20;100.00;100897.81;10151742;27;9999855;-63
2022/01/10 08:00:16;;;;;;;41.97;20.27;;;;;;;-0.23;100.00;100907.03;10456386;28;20224;-62
2022/01/10 08:05:20;;;;;;;41.00;19.57;;;;;;;-0.25;100.00;100914.63;10455703;28;20566;-63
2022/01/10 08:10:24;;;;;;;46.70;19.93;;;;;;;-0.28;100.00;100928.91;10457992;28;20237;-64
2022/01/10 08:15:28;;;;;;;40.07;18.70;;;;;;;-0.29;100.00;100937.34;10455781;28;20257;-60
2022/01/10 08:20:32;;;;;;;35.87;18.50;;;;;;;-0.44;100.00;100947.78;10455605;28;20250;-61
2022/01/10 08:25:36;;;;;;;41.17;17.87;;;;;;;-0.32;100.00;100958.50;10455619;28;20304;-61
2022/01/10 08:30:40;;;;;;;38.73;20.20;;;;;;;-0.31;100.00;100965.34;10455294;28;20224;-60
2022/01/10 08:35:43;;;;;;;40.53;17.67;;;;;;;-0.43;100.00;100962.25;10455673;28;20204;-63
2022/01/10 08:40:48;;;;;;;39.07;20.23;;;;;;;-0.32;100.00;100978.91;10455247;28;20192;-63
2022/01/10 08:45:51;;;;;;;41.23;18.53;;;;;;;-0.34;100.00;100987.28;10455238;28;20634;-62
2022/01/10 08:50:55;;;;;;;41.63;18.30;;;;;;;-0.23;100.00;100993.72;10461958;28;20208;-61
2022/01/10 08:56:00;;;;;;;40.97;18.37;;;;;;;-0.06;100.00;100987.66;10498607;28;20197;-62
2022/01/10 09:01:05;;;;;;;38.70;18.00;;;;;;;-0.13;100.00;100995.84;10463075;28;20797;-65
2022/01/10 09:06:09;;;;;;;37.90;18.40;;;;;;;0.06;100.00;101006.03;10463154;28;20307;-64
2022/01/10 09:11:14;;;;;;;42.63;19.20;;;;;;;0.05;100.00;101008.50;10462598;28;20213;-64
2022/01/10 09:16:17;;;;;;;45.17;18.57;;;;;;;0.00;100.00;101019.38;10462590;28;20223;-63
2022/01/10 09:21:20;;;;;;;42.60;18.93;;;;;;;0.00;100.00;101021.09;10462441;28;20193;-63
2022/01/10 09:26:25;;;;;;;39.37;17.23;;;;;;;0.21;100.00;101039.81;10462013;28;20207;-64
2022/01/10 09:31:29;;;;;;;39.00;16.93;;;;;;;0.25;100.00;101036.59;10461807;28;20220;-62
2022/01/10 09:36:34;;;;;;;37.70;17.83;;;;;;;0.37;100.00;101036.22;10461711;28;20688;-61
2022/01/10 09:41:41;;;;;;;34.50;15.53;;;;;;;0.38;100.00;101038.00;10461400;28;20216;-61
2022/01/10 09:46:47;;;;;;;33.77;15.03;;;;;;;0.69;100.00;101035.88;10461848;28;20213;-63
2022/01/10 09:51:50;;;;;;;38.80;16.13;;;;;;;0.86;100.00;101045.91;10460891;28;20561;-62
2022/01/10 09:56:55;;;;;;;37.27;15.83;;;;;;;1.00;100.00;101043.94;10511660;28;20307;-61
2022/01/10 10:01:58;;;;;;;33.47;14.27;;;;;;;1.14;99.67;101048.75;10460070;28;20323;-63
2022/01/10 10:07:02;;;;;;;33.90;13.87;;;;;;;1.10;98.44;101066.47;10460181;28;20232;-63
2022/01/10 10:12:08;;;;;;;34.63;14.17;;;;;;;1.30;97.32;101065.53;10460742;28;20233;-64
2022/01/10 10:17:17;;;;;;;32.90;14.23;;;;;;;1.41;95.26;101069.38;10460158;28;20227;-61
2022/01/10 10:22:21;;;;;;;34.50;14.10;;;;;;;1.51;92.36;101076.56;10460003;28;20231;-62
2022/01/10 10:27:26;;;;;;;31.60;14.47;;;;;;;1.89;91.03;101081.41;10459862;28;20226;-62
2022/01/10 10:32:50;;;;;;;29.80;13.20;;;;;;;2.16;85.77;101072.13;10459406;28;20225;-62
2022/01/10 10:37:54;;;;;;;25.10;11.67;;;;;;;2.01;83.58;101093.75;10459315;28;20189;-64
2022/01/10 10:43:00;;;;;;;25.30;11.37;;;;;;;2.10;84.60;101091.53;10459187;28;20284;-62
2022/01/10 10:48:06;;;;;;;25.97;11.80;;;;;;;1.77;84.93;101098.00;10458914;28;20217;-65
2022/01/10 10:53:13;;;;;;;24.33;10.20;;;;;;;1.80;84.18;101098.97;10459026;28;20243;-62
2022/01/10 10:58:17;;;;;;;19.60;9.30;;;;;;;2.38;83.51;101111.28;10524804;28;20221;-63
2022/01/10 11:03:21;;;;;;;15.40;7.57;;;;;;;3.06;77.83;101106.75;10141004;28;10000589;-64
2022/01/10 11:08:33;;;;;;;15.77;7.87;;;;;;;3.29;76.25;101116.94;10501887;28;20299;-63
2022/01/10 11:13:45;;;;;;;15.37;6.73;;;;;;;3.60;72.09;101126.41;10500845;28;20315;-65
2022/01/10 11:18:49;;;;;;;15.13;6.83;;;;;;;2.98;71.81;101121.91;10501700;28;20234;-62
2022/01/10 11:23:52;;;;;;;13.73;6.73;;;;;;;2.79;72.45;101131.50;10501888;28;20216;-62
2022/01/10 11:28:57;;;;;;;16.47;7.70;;;;;;;3.63;67.63;101131.63;10500768;28;20235;-63
2022/01/10 11:34:01;;;;;;;16.60;7.37;;;;;;;4.58;67.28;101136.91;10501356;28;20231;-62
2022/01/10 11:39:10;;;;;;;16.70;7.57;;;;;;;5.09;64.94;101140.78;10501181;28;20333;-63
2022/01/10 11:44:19;;;;;;;14.23;7.03;;;;;;;5.64;62.76;101146.38;10501235;28;20226;-63
2022/01/10 11:49:25;;;;;;;15.57;7.60;;;;;;;5.87;61.17;101146.91;10492388;28;20252;-63
2022/01/10 11:54:37;;;;;;;15.60;8.27;;;;;;;6.03;59.95;101154.13;10459153;28;20677;-65
2022/01/10 11:59:45;;;;;;;13.23;7.10;;;;;;;5.99;61.45;101152.31;10459406;28;20219;-60
2022/01/10 12:04:51;;;;;;;14.77;7.53;;;;;;;6.32;61.41;101153.00;10459402;28;20236;-63
2022/01/10 12:09:56;;;;;;;13.70;7.40;;;;;;;6.36;58.18;101162.56;10459469;28;20339;-64
2022/01/10 12:15:01;;;;;;;13.63;7.30;;;;;;;6.52;59.11;101163.72;10459016;28;20293;-62
2022/01/10 12:20:08;;;;;;;23.63;6.60;;;;;;;5.97;57.65;101174.59;10458990;28;20273;-64
2022/01/10 12:25:12;;;;;;;11.40;5.43;;;;;;;5.82;59.54;101194.84;10458721;28;20294;-62
2022/01/10 12:30:17;;;;;;;12.07;5.80;;;;;;;5.62;58.64;101199.56;10473748;28;20228;-65
2022/01/10 12:35:21;;;;;;;12.20;6.30;;;;;;;5.53;57.61;101208.78;10459472;28;20209;-65
2022/01/10 12:40:24;;;;;;;11.57;6.47;;;;;;;5.30;58.69;101210.78;10469775;28;20222;-63
2022/01/10 12:45:34;;;;;;;13.10;6.13;;;;;;;4.79;59.59;101219.75;10499628;28;20230;-62
2022/01/10 12:50:38;;;;;;;13.20;6.00;;;;;;;4.52;60.77;101222.44;10499537;28;20232;-64
2022/01/10 12:55:41;;;;;;;13.30;6.23;;;;;;;4.23;62.20;101243.84;10499509;28;20603;-63
2022/01/10 13:00:45;;;;;;;12.80;6.73;;;;;;;3.81;62.42;101255.41;10498979;28;20691;-63
2022/01/10 13:05:50;;;;;;;14.77;7.33;;;;;;;3.56;65.01;101258.00;10498919;28;20240;-64
2022/01/10 13:10:53;;;;;;;15.57;7.43;;;;;;;3.29;65.26;101269.94;10492842;28;20232;-62
2022/01/10 13:15:58;;;;;;;13.70;6.80;;;;;;;3.02;65.57;101276.72;10499397;28;20246;-61
2022/01/10 13:21:03;;;;;;;16.63;7.87;;;;;;;2.83;67.61;101289.69;10498604;28;20224;-62
2022/01/10 13:26:13;;;;;;;20.20;9.50;;;;;;;2.60;67.57;101309.38;10499202;28;20545;-62
2022/01/10 13:31:21;;;;;;;41.33;17.00;;;;;;;2.40;68.82;101324.81;10498450;28;20599;-65
2022/01/10 13:36:25;;;;;;;20.80;9.67;;;;;;;2.32;69.90;101333.06;10502359;28;20752;-64
2022/01/10 13:41:28;;;;;;;22.73;9.50;;;;;;;2.16;69.85;101334.97;10505372;28;20235;-64
2022/01/10 13:46:33;;;;;;;19.33;10.83;;;;;;;2.10;70.85;101350.97;10505816;28;20208;-64
2022/01/10 13:51:40;;;;;;;19.97;10.13;;;;;;;1.98;71.93;101353.06;10504969;28;20572;-64
2022/01/10 13:56:45;;;;;;;22.23;10.47;;;;;;;1.87;72.78;101364.53;10505410;28;20724;-62
2022/01/10 14:01:56;;;;;;;25.23;10.10;;;;;;;1.71;72.89;101367.28;10504588;28;20299;-62
2022/01/10 14:07:00;;;;;;;19.07;9.93;;;;;;;1.58;73.65;101377.81;10504899;28;20232;-62
2022/01/10 14:12:05;;;;;;;19.63;9.33;;;;;;;1.46;74.49;101382.41;10504082;28;20649;-65
2022/01/10 14:17:10;;;;;;;17.93;9.47;;;;;;;1.35;75.00;101396.41;10504709;28;20295;-65
2022/01/10 14:22:13;;;;;;;18.60;8.67;;;;;;;1.22;74.97;101401.81;10504005;28;20295;-62
2022/01/10 14:27:16;;;;;;;17.77;9.23;;;;;;;1.15;76.75;101410.03;10504200;28;20295;-62
2022/01/10 14:32:21;;;;;;;19.27;9.10;;;;;;;1.07;78.19;101424.16;10154561;27;10000678;-64
2022/01/10 14:37:24;;;;;;;72.20;29.07;;;;;;;0.92;78.22;101431.09;10474446;28;20212;-61
2022/01/10 14:42:30;;;;;;;23.57;11.10;;;;;;;0.80;79.61;101445.88;10487248;28;20217;-61
2022/01/10 14:47:34;;;;;;;24.40;10.30;;;;;;;0.73;79.92;101460.06;10458586;28;20271;-64
2022/01/10 14:52:37;;;;;;;25.47;11.40;;;;;;;0.57;80.41;101464.38;10458350;28;20554;-64
2022/01/10 14:57:41;;;;;;;24.97;12.17;;;;;;;0.49;81.86;101475.91;10458481;28;20259;-67
2022/01/10 15:02:45;;;;;;;26.30;11.63;;;;;;;0.39;82.38;101487.34;10457862;28;20266;-64
2022/01/10 15:07:49;;;;;;;26.83;12.33;;;;;;;0.30;82.85;101499.66;10458003;28;20318;-62
2022/01/10 15:12:52;;;;;;;27.23;12.47;;;;;;;0.23;83.59;101509.50;10458466;28;20225;-61
2022/01/10 15:17:57;;;;;;;30.20;12.97;;;;;;;0.22;82.73;101518.84;10457620;28;20322;-61
2022/01/10 15:23:00;;;;;;;26.50;12.13;;;;;;;0.13;83.22;101527.69;10457421;28;20228;-61
2022/01/10 15:28:04;;;;;;;31.17;13.37;;;;;;;0.13;83.11;101537.91;10457207;28;20216;-63
2022/01/10 15:33:10;;;;;;;30.43;13.20;;;;;;;0.06;83.32;101541.84;10456840;28;20685;-61
2022/01/10 15:38:13;;;;;;;29.93;14.43;;;;;;;0.02;83.65;101556.94;10509491;28;20215;-61
2022/01/10 15:43:17;;;;;;;27.47;12.97;;;;;;;-0.07;84.49;101558.19;10526298;28;20698;-60
2022/01/10 15:48:21;;;;;;;31.37;13.43;;;;;;;-0.15;86.11;101566.25;10497681;28;20335;-63
2022/01/10 15:53:24;;;;;;;29.37;14.33;;;;;;;-0.24;86.82;101587.06;10497750;28;20227;-63
2022/01/10 15:58:28;;;;;;;33.83;15.93;;;;;;;-0.33;88.80;101601.88;10497075;28;20212;-64
2022/01/10 16:03:33;;;;;;;32.43;15.53;;;;;;;-0.39;89.18;101604.09;10497270;28;20330;-63
2022/01/10 16:08:40;;;;;;;34.87;16.77;;;;;;;-0.42;90.22;101618.34;10497496;28;20344;-61
2022/01/10 16:13:51;;;;;;;33.10;15.23;;;;;;;-0.52;90.35;101627.16;10493737;28;20220;-63
2022/01/10 16:18:56;;;;;;;34.80;16.23;;;;;;;-0.52;89.95;101632.25;10497722;28;20236;-64
2022/01/10 16:23:59;;;;;;;29.73;14.13;;;;;;;-0.50;89.42;101645.13;10485022;28;20231;-62
2022/01/10 16:29:03;;;;;;;31.50;15.03;;;;;;;-0.48;87.92;101658.81;10464707;28;20370;-63
2022/01/10 16:34:27;;;;;;;36.33;17.83;;;;;;;-0.51;88.29;101656.97;10507188;28;20258;-67
2022/01/10 16:39:31;;;;;;;37.63;16.50;;;;;;;-0.52;88.97;101669.66;10455306;28;20244;-62
2022/01/10 16:44:35;;;;;;;38.20;17.30;;;;;;;-0.58;88.45;101672.72;10455278;28;20222;-64
2022/01/10 16:49:43;;;;;;;35.77;16.60;;;;;;;-0.66;87.57;101683.31;10455526;28;20220;-63
2022/01/10 16:55:01;;;;;;;36.50;16.30;;;;;;;-0.68;89.03;101700.19;10454984;28;20617;-62
2022/01/10 17:00:08;;;;;;;37.40;18.07;;;;;;;-0.60;89.13;101707.44;10454963;28;20212;-68
2022/01/10 17:05:13;;;;;;;38.73;15.90;;;;;;;-0.67;90.52;101713.00;10468242;28;20673;-64
2022/01/10 17:10:21;;;;;;;36.30;17.13;;;;;;;-0.72;91.20;101723.72;10500477;28;20684;-63
2022/01/10 17:15:25;;;;;;;30.87;15.60;;;;;;;-0.81;91.52;101728.31;10503697;28;20224;-62
2022/01/10 17:20:30;;;;;;;33.47;15.43;;;;;;;-0.88;92.74;101732.16;10504031;28;20223;-62
2022/01/10 17:25:33;;;;;;;32.93;15.70;;;;;;;-0.92;92.68;101737.91;10503519;28;20726;-64
2022/01/10 17:30:37;;;;;;;31.17;14.70;;;;;;;-1.00;93.40;101750.97;10521136;28;20287;-62
2022/01/10 17:35:42;;;;;;;31.67;14.37;;;;;;;-1.05;93.52;101758.34;10544726;28;20223;-63
2022/01/10 17:40:45;;;;;;;32.30;15.13;;;;;;;-1.03;93.39;101754.22;10544959;28;20550;-63
2022/01/10 17:45:48;;;;;;;31.87;14.47;;;;;;;-1.06;94.42;101761.69;10544944;28;20723;-63
2022/01/10 17:50:56;;;;;;;30.17;15.13;;;;;;;-1.07;94.36;101769.25;10544581;28;20280;-61
2022/01/10 17:55:59;;;;;;;29.53;14.57;;;;;;;-1.20;94.16;101775.28;10544300;28;20556;-65
2022/01/10 18:01:03;;;;;;;32.73;15.80;;;;;;;-1.17;95.13;101778.00;10544238;28;20211;-60
2022/01/10 18:06:08;;;;;;;35.70;17.00;;;;;;;-1.25;95.00;101784.31;10543566;28;20322;-62
2022/01/10 18:11:11;;;;;;;31.33;16.00;;;;;;;-1.32;95.13;101798.34;10543697;28;20216;-62
2022/01/10 18:16:15;;;;;;;41.87;18.40;;;;;;;-1.36;95.91;101801.47;10543653;28;20322;-62
2022/01/10 18:21:20;;;;;;;36.40;16.33;;;;;;;-1.38;96.44;101804.75;10542496;28;20202;-62
2022/01/10 18:26:24;;;;;;;37.03;15.97;;;;;;;-1.41;96.85;101812.16;10543788;28;20203;-65
2022/01/10 18:31:27;;;;;;;39.87;16.80;;;;;;;-1.50;96.75;101824.38;10517925;28;20280;-66
2022/01/10 18:36:35;;;;;;;41.93;17.77;;;;;;;-1.57;97.56;101829.88;10500633;28;20212;-64
2022/01/10 18:41:38;;;;;;;39.90;17.03;;;;;;;-1.60;98.29;101839.81;10500679;28;20271;-62
2022/01/10 18:46:41;;;;;;;34.53;15.90;;;;;;;-1.67;98.65;101841.13;10500498;28;20279;-68
2022/01/10 18:51:46;;;;;;;33.97;16.83;;;;;;;-1.64;98.36;101853.16;10500147;28;20560;-64
2022/01/10 18:56:49;;;;;;;44.03;19.50;;;;;;;-1.65;99.44;101866.66;10500047;28;20298;-65
2022/01/10 19:01:54;;;;;;;34.73;18.07;;;;;;;-1.70;99.43;101880.75;10499705;28;20192;-65
2022/01/10 19:06:59;;;;;;;39.13;17.90;;;;;;;-1.74;100.00;101886.44;10499144;28;20247;-67
2022/01/10 19:12:03;;;;;;;42.00;17.97;;;;;;;-1.80;100.00;101875.88;10499295;28;20626;-67
2022/01/10 19:17:09;;;;;;;39.67;19.03;;;;;;;-1.78;100.00;101881.94;10498909;28;20606;-68
2022/01/10 19:22:14;;;;;;;43.83;20.07;;;;;;;-1.84;100.00;101894.28;10499785;28;20188;-65
2022/01/10 19:27:17;;;;;;;43.83;19.53;;;;;;;-1.88;100.00;101888.09;10498942;28;20814;-66
2022/01/10 19:32:20;;;;;;;47.43;20.40;;;;;;;-1.90;100.00;101904.06;10529662;28;20192;-67
2022/01/10 19:37:25;;;;;;;47.43;21.27;;;;;;;-1.92;100.00;101914.16;10540375;28;20191;-63
2022/01/10 19:42:28;;;;;;;47.43;22.40;;;;;;;-2.06;100.00;101919.13;10540178;28;20191;-69
2022/01/10 19:47:31;;;;;;;48.20;21.43;;;;;;;-1.90;100.00;101929.50;10539693;28;20215;-66
2022/01/10 19:52:38;;;;;;;45.07;21.57;;;;;;;-1.97;100.00;101930.78;10539953;28;20211;-64
2022/01/10 19:57:42;;;;;;;45.93;21.30;;;;;;;-2.02;100.00;101943.97;10539535;28;20212;-61
2022/01/10 20:02:45;;;;;;;44.30;20.30;;;;;;;-2.05;100.00;101943.78;10539816;28;20245;-65
2022/01/10 20:07:51;;;;;;;42.53;19.60;;;;;;;-2.06;100.00;101950.53;10539742;28;20310;-64
2022/01/10 20:12:55;;;;;;;45.10;20.47;;;;;;;-2.07;100.00;101950.44;10538789;28;20223;-65
2022/01/10 20:17:59;;;;;;;46.57;20.40;;;;;;;-2.17;100.00;101963.31;10188203;28;10000342;-66
2022/01/10 20:23:04;;;;;;;46.17;20.20;;;;;;;-2.24;100.00;101967.09;10542335;28;20229;-65
2022/01/10 20:28:07;;;;;;;44.50;20.03;;;;;;;-2.17;100.00;101964.19;10542305;28;20215;-63
2022/01/10 20:33:10;;;;;;;46.63;20.47;;;;;;;-2.20;100.00;101986.88;10541683;28;20318;-65
2022/01/10 20:38:15;;;;;;;49.07;20.43;;;;;;;-2.12;100.00;101985.72;10529048;28;20239;-68
2022/01/10 20:43:20;;;;;;;39.97;19.27;;;;;;;-2.04;100.00;101998.94;10497391;28;20310;-67
2022/01/10 20:48:27;;;;;;;44.87;21.27;;;;;;;-2.01;100.00;102007.66;10505386;28;20211;-63
2022/01/10 20:53:33;;;;;;;48.00;22.30;;;;;;;-2.02;100.00;102010.97;10504808;28;20234;-66
2022/01/10 20:58:36;;;;;;;46.00;21.77;;;;;;;-1.97;100.00;102018.91;10504802;28;20307;-67
2022/01/10 21:03:42;;;;;;;40.33;20.63;;;;;;;-2.09;100.00;102020.63;10504583;28;20318;-63
2022/01/10 21:08:46;;;;;;;46.73;22.10;;;;;;;-2.18;100.00;102032.72;10504276;28;20633;-62
2022/01/10 21:13:50;;;;;;;48.27;20.50;;;;;;;-2.23;100.00;102029.91;10503982;28;20220;-65
2022/01/10 21:18:53;;;;;;;49.20;21.33;;;;;;;-2.33;100.00;102037.69;10462926;28;20217;-64
2022/01/10 21:23:58;;;;;;;48.40;21.77;;;;;;;-2.31;100.00;102050.50;10462373;28;20217;-61
2022/01/10 21:29:02;;;;;;;46.70;21.03;;;;;;;-2.27;100.00;102060.97;10462215;28;20520;-61
2022/01/10 21:34:06;;;;;;;45.93;20.23;;;;;;;-2.29;100.00;102054.00;10462077;28;20573;-63
2022/01/10 21:39:11;;;;;;;45.03;20.73;;;;;;;-2.42;100.00;102062.47;10486693;28;20236;-62
2022/01/10 21:44:15;;;;;;;38.53;18.80;;;;;;;-2.43;100.00;102068.31;10503001;28;20688;-67
2022/01/10 21:49:18;;;;;;;56.03;24.63;;;;;;;-2.37;100.00;102074.72;10503087;28;20234;-69
2022/01/10 21:54:23;;;;;;;46.33;19.73;;;;;;;-2.43;100.00;102074.28;10502381;28;20220;-63
2022/01/10 21:59:26;;;;;;;39.03;18.60;;;;;;;-2.51;100.00;102080.50;10501644;28;20222;-69
2022/01/10 22:04:29;;;;;;;40.73;17.77;;;;;;;-2.63;100.00;102079.66;10502285;28;20250;-64
2022/01/10 22:09:34;;;;;;;42.50;18.07;;;;;;;-2.57;100.00;102082.59;10502169;28;20219;-63
2022/01/10 22:14:37;;;;;;;37.10;19.33;;;;;;;-2.61;100.00;102083.19;10508062;28;20229;-62
2022/01/10 22:19:42;;;;;;;45.03;19.47;;;;;;;-2.72;100.00;102089.16;10543906;28;20211;-62
2022/01/10 22:24:46;;;;;;;39.13;19.30;;;;;;;-2.65;100.00;102091.38;10543465;28;20294;-62
2022/01/10 22:29:50;;;;;;;41.27;19.03;;;;;;;-2.60;100.00;102101.84;10543252;28;20212;-62
2022/01/10 22:34:53;;;;;;;40.00;18.70;;;;;;;-2.70;100.00;102110.50;10543870;28;20241;-63
2022/01/10 22:39:58;;;;;;;35.67;17.87;;;;;;;-2.81;100.00;102115.56;10542846;28;20215;-64
2022/01/10 22:45:01;;;;;;;40.97;18.97;;;;;;;-2.76;100.00;102116.81;10542650;28;20298;-66
2022/01/10 22:50:05;;;;;;;40.53;18.27;;;;;;;-2.83;100.00;102118.00;10542643;28;20538;-65